sensor_id;sensor_type;location;lat;lon;timestamp;pressure;altitude;pressure_sealevel;temperature;humidity
19576;BME280;41589;51.196;7.074;2023-07-09T00:02:54;99189.66;;;26.72;36.20
19576;BME280;41589;51.196;7.074;2023-07-09T00:07:55;99181.75;;;26.65;36.38
19576;BME280;41589;51.196;7.074;2023-07-09T00:12:55;99185.59;;;26.60;36.57
19576;BME280;41589;51.196;7.074;2023-07-09T00:17:56;99179.47;;;26.71;36.38
19576;BME280;41589;51.196;7.074;2023-07-09T00:22:56;99179.09;;;26.67;36.37
19576;BME280;41589;51.196;7.074;2023-07-09T00:27:57;99174.22;;;26.55;36.87
19576;BME280;41589;51.196;7.074;2023-07-09T00:33:01;99179.59;;;26.51;37.11
19576;BME280;41589;51.196;7.074;2023-07-09T00:38:01;99184.41;;;26.48;36.84
19576;BME280;41589;51.196;7.074;2023-07-09T00:43:13;99177.28;;;26.41;36.89
19576;BME280;41589;51.196;7.074;2023-07-09T00:48:18;99172.06;;;26.40;37.19
19576;BME280;41589;51.196;7.074;2023-07-09T00:53:31;99176.88;;;26.37;37.21
19576;BME280;41589;51.196;7.074;2023-07-09T00:58:37;99166.44;;;26.27;37.24
19576;BME280;41589;51.196;7.074;2023-07-09T01:03:44;99167.63;;;26.31;37.64
19576;BME280;41589;51.196;7.074;2023-07-09T01:08:45;99168.19;;;26.30;37.86
19576;BME280;41589;51.196;7.074;2023-07-09T01:13:57;99167.78;;;26.26;37.88
19576;BME280;41589;51.196;7.074;2023-07-09T01:19:04;99170.66;;;26.26;38.14
19576;BME280;41589;51.196;7.074;2023-07-09T01:24:16;99172.00;;;26.25;37.89
19576;BME280;41589;51.196;7.074;2023-07-09T01:29:37;99168.13;;;26.14;38.35
19576;BME280;41589;51.196;7.074;2023-07-09T01:34:38;99172.31;;;26.06;38.28
19576;BME280;41589;51.196;7.074;2023-07-09T01:39:40;99173.63;;;25.97;38.77
19576;BME280;41589;51.196;7.074;2023-07-09T01:44:44;99170.34;;;25.93;38.60
19576;BME280;41589;51.196;7.074;2023-07-09T01:49:46;99166.25;;;25.88;39.04
19576;BME280;41589;51.196;7.074;2023-07-09T01:54:47;99165.88;;;25.92;38.96
19576;BME280;41589;51.196;7.074;2023-07-09T01:59:55;99169.19;;;25.96;38.85
19576;BME280;41589;51.196;7.074;2023-07-09T02:04:56;99174.53;;;25.92;39.15
19576;BME280;41589;51.196;7.074;2023-07-09T02:09:59;99165.50;;;25.88;38.75
19576;BME280;41589;51.196;7.074;2023-07-09T02:15:00;99171.06;;;25.86;39.08
19576;BME280;41589;51.196;7.074;2023-07-09T02:20:02;99174.91;;;25.88;39.16
19576;BME280;41589;51.196;7.074;2023-07-09T02:25:10;99175.69;;;25.89;39.23
19576;BME280;41589;51.196;7.074;2023-07-09T02:30:14;99172.41;;;25.85;39.30
19576;BME280;41589;51.196;7.074;2023-07-09T02:35:15;99178.94;;;25.85;39.24
19576;BME280;41589;51.196;7.074;2023-07-09T02:40:16;99184.91;;;25.87;39.41
19576;BME280;41589;51.196;7.074;2023-07-09T02:45:17;99185.28;;;25.84;39.29
19576;BME280;41589;51.196;7.074;2023-07-09T02:50:17;99190.03;;;25.81;39.34
19576;BME280;41589;51.196;7.074;2023-07-09T02:55:21;99199.63;;;25.76;39.56
19576;BME280;41589;51.196;7.074;2023-07-09T03:00:21;99188.25;;;25.71;39.55
19576;BME280;41589;51.196;7.074;2023-07-09T03:05:24;99192.09;;;25.66;39.61
19576;BME280;41589;51.196;7.074;2023-07-09T03:10:28;99196.63;;;25.61;39.83
19576;BME280;41589;51.196;7.074;2023-07-09T03:15:28;99204.28;;;25.58;39.91
19576;BME280;41589;51.196;7.074;2023-07-09T03:20:29;99193.50;;;25.51;39.98
19576;BME280;41589;51.196;7.074;2023-07-09T03:25:32;99195.88;;;25.40;40.21
19576;BME280;41589;51.196;7.074;2023-07-09T03:30:33;99201.81;;;25.34;40.41
19576;BME280;41589;51.196;7.074;2023-07-09T03:35:34;99213.91;;;25.32;40.51
19576;BME280;41589;51.196;7.074;2023-07-09T03:40:35;99217.19;;;25.37;40.22
19576;BME280;41589;51.196;7.074;2023-07-09T03:45:40;99209.47;;;25.31;40.37
19576;BME280;41589;51.196;7.074;2023-07-09T03:50:41;99216.00;;;25.32;40.60
19576;BME280;41589;51.196;7.074;2023-07-09T03:55:54;99221.47;;;25.43;40.24
19576;BME280;41589;51.196;7.074;2023-07-09T04:01:00;99214.59;;;25.46;40.53
19576;BME280;41589;51.196;7.074;2023-07-09T04:06:01;99229.63;;;25.52;40.54
19576;BME280;41589;51.196;7.074;2023-07-09T04:11:02;99221.19;;;25.54;40.52
19576;BME280;41589;51.196;7.074;2023-07-09T04:16:03;99227.53;;;25.60;40.58
19576;BME280;41589;51.196;7.074;2023-07-09T04:21:04;99232.44;;;25.66;40.38
19576;BME280;41589;51.196;7.074;2023-07-09T04:26:05;99230.72;;;25.70;40.06
19576;BME280;41589;51.196;7.074;2023-07-09T04:31:09;99224.38;;;25.72;40.65
19576;BME280;41589;51.196;7.074;2023-07-09T04:36:10;99224.81;;;25.76;40.37
19576;BME280;41589;51.196;7.074;2023-07-09T04:41:12;99222.53;;;25.82;40.51
19576;BME280;41589;51.196;7.074;2023-07-09T04:46:12;99226.81;;;25.88;40.35
19576;BME280;41589;51.196;7.074;2023-07-09T04:51:16;99231.47;;;25.99;40.37
19576;BME280;41589;51.196;7.074;2023-07-09T04:56:18;99238.47;;;26.11;40.06
19576;BME280;41589;51.196;7.074;2023-07-09T05:01:21;99236.19;;;26.17;40.25
19576;BME280;41589;51.196;7.074;2023-07-09T05:06:22;99236.28;;;26.33;39.85
19576;BME280;41589;51.196;7.074;2023-07-09T05:11:26;99237.13;;;26.49;39.74
19576;BME280;41589;51.196;7.074;2023-07-09T05:16:27;99235.28;;;26.66;39.38
19576;BME280;41589;51.196;7.074;2023-07-09T05:21:28;99232.56;;;26.76;39.86
19576;BME280;41589;51.196;7.074;2023-07-09T05:26:28;99240.34;;;26.96;39.47
19576;BME280;41589;51.196;7.074;2023-07-09T05:31:28;99237.09;;;27.00;39.80
19576;BME280;41589;51.196;7.074;2023-07-09T05:36:29;99238.66;;;27.16;39.26
19576;BME280;41589;51.196;7.074;2023-07-09T05:41:30;99246.19;;;27.35;39.17
19576;BME280;41589;51.196;7.074;2023-07-09T05:46:34;99238.69;;;27.54;39.01
19576;BME280;41589;51.196;7.074;2023-07-09T05:51:36;99239.66;;;27.72;39.08
19576;BME280;41589;51.196;7.074;2023-07-09T05:56:37;99240.00;;;27.92;38.56
19576;BME280;41589;51.196;7.074;2023-07-09T06:01:38;99229.94;;;28.08;38.03
19576;BME280;41589;51.196;7.074;2023-07-09T06:06:38;99240.50;;;28.28;37.84
19576;BME280;41589;51.196;7.074;2023-07-09T06:11:41;99240.97;;;28.50;37.98
19576;BME280;41589;51.196;7.074;2023-07-09T06:16:43;99228.94;;;28.61;37.48
19576;BME280;41589;51.196;7.074;2023-07-09T06:21:44;99235.50;;;28.69;37.21
19576;BME280;41589;51.196;7.074;2023-07-09T06:26:44;99234.72;;;28.76;37.75
19576;BME280;41589;51.196;7.074;2023-07-09T06:31:45;99241.47;;;29.03;37.53
19576;BME280;41589;51.196;7.074;2023-07-09T06:36:46;99234.00;;;29.25;37.26
19576;BME280;41589;51.196;7.074;2023-07-09T06:41:46;99234.31;;;29.37;36.96
19576;BME280;41589;51.196;7.074;2023-07-09T06:47:07;99235.38;;;29.67;36.88
19576;BME280;41589;51.196;7.074;2023-07-09T06:52:09;99238.66;;;29.71;36.49
19576;BME280;41589;51.196;7.074;2023-07-09T06:57:10;99245.94;;;29.79;36.59
19576;BME280;41589;51.196;7.074;2023-07-09T07:02:22;99254.56;;;30.04;36.68
19576;BME280;41589;51.196;7.074;2023-07-09T07:07:43;99239.31;;;30.21;36.66
19576;BME280;41589;51.196;7.074;2023-07-09T07:13:53;99238.50;;;30.55;36.32
19576;BME280;41589;51.196;7.074;2023-07-09T07:24:34;99231.41;;;30.83;36.40
19576;BME280;41589;51.196;7.074;2023-07-09T07:29:53;99228.16;;;31.06;35.87
19576;BME280;41589;51.196;7.074;2023-07-09T07:35:19;99218.75;;;31.35;35.80
19576;BME280;41589;51.196;7.074;2023-07-09T07:40:25;99220.38;;;31.55;34.57
19576;BME280;41589;51.196;7.074;2023-07-09T07:45:52;99214.44;;;31.63;34.86
19576;BME280;41589;51.196;7.074;2023-07-09T07:51:01;99219.81;;;31.76;34.79
19576;BME280;41589;51.196;7.074;2023-07-09T07:56:09;99241.47;;;31.92;35.28
19576;BME280;41589;51.196;7.074;2023-07-09T08:01:23;99214.81;;;31.96;34.92
19576;BME280;41589;51.196;7.074;2023-07-09T08:06:39;99223.09;;;32.09;35.36
19576;BME280;41589;51.196;7.074;2023-07-09T08:17:22;99216.06;;;32.51;34.78
19576;BME280;41589;51.196;7.074;2023-07-09T08:22:28;99224.16;;;32.71;33.35
19576;BME280;41589;51.196;7.074;2023-07-09T08:28:23;99217.31;;;33.08;33.78
19576;BME280;41589;51.196;7.074;2023-07-09T08:33:26;99211.38;;;33.27;32.46
19576;BME280;41589;51.196;7.074;2023-07-09T08:38:30;99206.28;;;33.68;32.11
19576;BME280;41589;51.196;7.074;2023-07-09T08:44:09;99199.91;;;34.03;31.78
19576;BME280;41589;51.196;7.074;2023-07-09T08:49:29;99197.72;;;34.25;29.75
19576;BME280;41589;51.196;7.074;2023-07-09T08:54:35;99196.03;;;34.43;29.66
19576;BME280;41589;51.196;7.074;2023-07-09T08:59:42;99191.00;;;34.67;29.55
19576;BME280;41589;51.196;7.074;2023-07-09T09:04:57;99184.63;;;35.04;27.55
19576;BME280;41589;51.196;7.074;2023-07-09T09:10:07;99189.84;;;35.40;26.94
19576;BME280;41589;51.196;7.074;2023-07-09T09:15:14;99196.56;;;35.66;27.91
19576;BME280;41589;51.196;7.074;2023-07-09T09:21:03;99182.75;;;36.04;26.79
19576;BME280;41589;51.196;7.074;2023-07-09T09:26:16;99184.50;;;36.09;25.89
19576;BME280;41589;51.196;7.074;2023-07-09T09:31:20;99185.97;;;36.33;26.25
19576;BME280;41589;51.196;7.074;2023-07-09T09:36:26;99188.47;;;36.64;26.01
19576;BME280;41589;51.196;7.074;2023-07-09T09:41:30;99185.53;;;36.90;25.55
19576;BME280;41589;51.196;7.074;2023-07-09T09:46:47;99192.94;;;36.91;25.15
19576;BME280;41589;51.196;7.074;2023-07-09T09:52:02;99186.94;;;36.89;25.39
19576;BME280;41589;51.196;7.074;2023-07-09T09:57:03;99197.41;;;37.06;25.85
19576;BME280;41589;51.196;7.074;2023-07-09T10:02:16;99180.19;;;37.67;24.62
19576;BME280;41589;51.196;7.074;2023-07-09T10:07:34;99180.91;;;37.95;24.61
19576;BME280;41589;51.196;7.074;2023-07-09T10:12:52;99174.72;;;38.02;24.88
19576;BME280;41589;51.196;7.074;2023-07-09T10:34:35;99149.41;;;38.70;23.01
19576;BME280;41589;51.196;7.074;2023-07-09T10:39:55;99161.84;;;38.68;22.97
19576;BME280;41589;51.196;7.074;2023-07-09T10:45:09;99160.31;;;38.67;23.64
19576;BME280;41589;51.196;7.074;2023-07-09T10:50:33;99171.59;;;38.28;22.64
19576;BME280;41589;51.196;7.074;2023-07-09T10:56:04;99170.38;;;38.03;22.80
19576;BME280;41589;51.196;7.074;2023-07-09T11:01:24;99174.28;;;37.80;22.52
19576;BME280;41589;51.196;7.074;2023-07-09T11:06:36;99163.34;;;37.67;22.72
19576;BME280;41589;51.196;7.074;2023-07-09T11:12:18;99153.53;;;37.49;22.35
19576;BME280;41589;51.196;7.074;2023-07-09T11:17:32;99144.88;;;37.23;23.26
19576;BME280;41589;51.196;7.074;2023-07-09T11:23:06;99138.78;;;37.33;23.00
19576;BME280;41589;51.196;7.074;2023-07-09T11:28:12;99133.88;;;37.24;23.37
19576;BME280;41589;51.196;7.074;2023-07-09T11:33:26;99116.69;;;37.05;23.31
19576;BME280;41589;51.196;7.074;2023-07-09T11:38:52;99116.47;;;37.01;23.91
19576;BME280;41589;51.196;7.074;2023-07-09T11:44:17;99110.72;;;36.89;23.82
19576;BME280;41589;51.196;7.074;2023-07-09T11:49:38;99113.84;;;36.93;24.96
19576;BME280;41589;51.196;7.074;2023-07-09T11:54:48;99107.97;;;36.79;24.53
19576;BME280;41589;51.196;7.074;2023-07-09T11:59:48;99116.28;;;36.57;24.22
19576;BME280;41589;51.196;7.074;2023-07-09T12:04:52;99122.19;;;36.46;24.96
19576;BME280;41589;51.196;7.074;2023-07-09T12:10:23;99112.22;;;36.51;24.62
19576;BME280;41589;51.196;7.074;2023-07-09T12:15:32;99106.16;;;36.47;24.82
19576;BME280;41589;51.196;7.074;2023-07-09T12:20:37;99107.34;;;36.55;25.50
19576;BME280;41589;51.196;7.074;2023-07-09T12:25:39;99112.09;;;36.74;24.70
19576;BME280;41589;51.196;7.074;2023-07-09T12:30:59;99092.16;;;36.98;24.33
19576;BME280;41589;51.196;7.074;2023-07-09T12:36:04;99069.66;;;37.16;24.27
19576;BME280;41589;51.196;7.074;2023-07-09T12:41:19;99063.44;;;37.38;24.08
19576;BME280;41589;51.196;7.074;2023-07-09T12:46:26;99052.81;;;37.17;23.80
19576;BME280;41589;51.196;7.074;2023-07-09T12:51:29;99056.66;;;37.19;23.86
19576;BME280;41589;51.196;7.074;2023-07-09T12:56:34;99063.38;;;37.08;23.77
19576;BME280;41589;51.196;7.074;2023-07-09T13:01:39;99061.50;;;37.01;24.05
19576;BME280;41589;51.196;7.074;2023-07-09T13:06:41;99052.59;;;36.85;24.03
19576;BME280;41589;51.196;7.074;2023-07-09T13:11:53;99059.75;;;36.68;23.96
19576;BME280;41589;51.196;7.074;2023-07-09T13:17:09;99045.78;;;36.55;24.35
19576;BME280;41589;51.196;7.074;2023-07-09T13:22:16;99035.25;;;36.36;24.46
19576;BME280;41589;51.196;7.074;2023-07-09T13:27:27;99034.69;;;36.26;24.68
19576;BME280;41589;51.196;7.074;2023-07-09T13:32:32;99019.28;;;36.00;24.74
19576;BME280;41589;51.196;7.074;2023-07-09T13:37:35;99025.75;;;35.85;25.35
19576;BME280;41589;51.196;7.074;2023-07-09T13:42:40;99025.19;;;35.63;25.41
19576;BME280;41589;51.196;7.074;2023-07-09T13:47:52;99014.56;;;35.44;26.16
19576;BME280;41589;51.196;7.074;2023-07-09T13:52:59;99006.38;;;35.06;26.14
19576;BME280;41589;51.196;7.074;2023-07-09T13:58:00;98991.41;;;34.88;26.36
19576;BME280;41589;51.196;7.074;2023-07-09T14:03:22;98982.00;;;34.66;27.24
19576;BME280;41589;51.196;7.074;2023-07-09T14:08:31;98984.81;;;34.40;27.36
19576;BME280;41589;51.196;7.074;2023-07-09T14:13:35;99010.31;;;34.17;28.76
19576;BME280;41589;51.196;7.074;2023-07-09T14:18:35;98994.97;;;33.50;33.42
19576;BME280;41589;51.196;7.074;2023-07-09T14:23:42;99071.69;;;32.69;33.53
19576;BME280;41589;51.196;7.074;2023-07-09T14:28:47;99130.84;;;31.07;37.84
19576;BME280;41589;51.196;7.074;2023-07-09T14:34:16;99191.53;;;29.20;42.63
19576;BME280;41589;51.196;7.074;2023-07-09T14:39:27;99166.44;;;27.39;48.25
19576;BME280;41589;51.196;7.074;2023-07-09T14:44:29;99163.34;;;24.01;83.60
19576;BME280;41589;51.196;7.074;2023-07-09T14:49:30;99214.44;;;22.59;94.28
19576;BME280;41589;51.196;7.074;2023-07-09T14:54:31;99305.81;;;20.86;99.79
19576;BME280;41589;51.196;7.074;2023-07-09T14:59:32;99429.22;;;20.43;100.00
19576;BME280;41589;51.196;7.074;2023-07-09T15:04:33;99428.47;;;20.31;100.00
19576;BME280;41589;51.196;7.074;2023-07-09T15:09:36;99413.69;;;20.05;100.00
19576;BME280;41589;51.196;7.074;2023-07-09T15:15:00;99410.53;;;20.42;100.00
19576;BME280;41589;51.196;7.074;2023-07-09T15:20:07;99388.88;;;20.63;100.00
19576;BME280;41589;51.196;7.074;2023-07-09T15:25:26;99366.13;;;20.82;100.00
19576;BME280;41589;51.196;7.074;2023-07-09T15:31:02;99350.91;;;21.10;100.00
19576;BME280;41589;51.196;7.074;2023-07-09T15:36:15;99350.53;;;21.30;100.00
19576;BME280;41589;51.196;7.074;2023-07-09T15:41:39;99348.78;;;21.51;100.00
19576;BME280;41589;51.196;7.074;2023-07-09T15:46:58;99378.56;;;21.73;100.00
19576;BME280;41589;51.196;7.074;2023-07-09T15:51:59;99356.97;;;21.72;100.00
19576;BME280;41589;51.196;7.074;2023-07-09T15:57:14;99337.34;;;21.81;100.00
19576;BME280;41589;51.196;7.074;2023-07-09T16:02:19;99307.81;;;21.92;100.00
19576;BME280;41589;51.196;7.074;2023-07-09T16:07:25;99314.97;;;22.04;100.00
19576;BME280;41589;51.196;7.074;2023-07-09T16:12:29;99328.63;;;22.17;100.00
19576;BME280;41589;51.196;7.074;2023-07-09T16:17:35;99316.06;;;22.44;100.00
19576;BME280;41589;51.196;7.074;2023-07-09T16:22:43;99307.63;;;22.52;100.00
19576;BME280;41589;51.196;7.074;2023-07-09T16:27:44;99291.38;;;22.60;100.00
19576;BME280;41589;51.196;7.074;2023-07-09T16:32:47;99268.47;;;22.73;100.00
19576;BME280;41589;51.196;7.074;2023-07-09T16:37:50;99249.53;;;23.02;100.00
19576;BME280;41589;51.196;7.074;2023-07-09T16:42:52;99223.75;;;22.97;100.00
19576;BME280;41589;51.196;7.074;2023-07-09T16:48:16;99221.78;;;22.92;100.00
19576;BME280;41589;51.196;7.074;2023-07-09T16:53:19;99187.19;;;22.52;100.00
19576;BME280;41589;51.196;7.074;2023-07-09T17:04:49;99178.63;;;22.28;100.00
19576;BME280;41589;51.196;7.074;2023-07-09T17:16:10;99157.41;;;22.17;100.00
19576;BME280;41589;51.196;7.074;2023-07-09T17:22:01;99163.63;;;22.22;100.00
19576;BME280;41589;51.196;7.074;2023-07-09T17:27:39;99158.97;;;22.18;100.00
19576;BME280;41589;51.196;7.074;2023-07-09T17:32:50;99165.81;;;22.34;100.00
19576;BME280;41589;51.196;7.074;2023-07-09T17:43:38;99146.66;;;22.42;100.00
19576;BME280;41589;51.196;7.074;2023-07-09T17:49:29;99149.66;;;22.50;100.00
19576;BME280;41589;51.196;7.074;2023-07-09T17:55:14;99151.00;;;22.49;100.00
19576;BME280;41589;51.196;7.074;2023-07-09T18:00:37;99141.06;;;22.50;100.00
19576;BME280;41589;51.196;7.074;2023-07-09T18:05:38;99131.31;;;22.72;100.00
19576;BME280;41589;51.196;7.074;2023-07-09T18:10:41;99145.25;;;22.81;100.00
19576;BME280;41589;51.196;7.074;2023-07-09T18:15:50;99141.84;;;22.96;100.00
19576;BME280;41589;51.196;7.074;2023-07-09T18:20:50;99127.34;;;23.07;100.00
19576;BME280;41589;51.196;7.074;2023-07-09T18:25:52;99124.59;;;23.15;100.00
19576;BME280;41589;51.196;7.074;2023-07-09T18:30:52;99124.03;;;23.16;100.00
19576;BME280;41589;51.196;7.074;2023-07-09T18:35:53;99113.22;;;23.22;100.00
19576;BME280;41589;51.196;7.074;2023-07-09T18:40:54;99125.69;;;23.38;100.00
19576;BME280;41589;51.196;7.074;2023-07-09T18:45:54;99118.06;;;23.41;100.00
19576;BME280;41589;51.196;7.074;2023-07-09T18:50:55;99125.69;;;23.38;100.00
19576;BME280;41589;51.196;7.074;2023-07-09T18:55:56;99133.22;;;23.28;100.00
19576;BME280;41589;51.196;7.074;2023-07-09T19:00:58;99142.03;;;23.30;100.00
19576;BME280;41589;51.196;7.074;2023-07-09T19:05:59;99141.16;;;23.22;100.00
19576;BME280;41589;51.196;7.074;2023-07-09T19:10:59;99135.75;;;23.31;100.00
19576;BME280;41589;51.196;7.074;2023-07-09T19:16:01;99145.69;;;23.30;100.00
19576;BME280;41589;51.196;7.074;2023-07-09T19:21:04;99159.06;;;23.28;100.00
19576;BME280;41589;51.196;7.074;2023-07-09T19:26:08;99167.53;;;23.20;100.00
19576;BME280;41589;51.196;7.074;2023-07-09T19:31:09;99172.06;;;23.02;100.00
19576;BME280;41589;51.196;7.074;2023-07-09T19:36:24;99184.22;;;22.90;100.00
19576;BME280;41589;51.196;7.074;2023-07-09T19:41:25;99182.63;;;22.75;100.00
19576;BME280;41589;51.196;7.074;2023-07-09T19:46:26;99183.41;;;22.76;100.00
19576;BME280;41589;51.196;7.074;2023-07-09T19:51:27;99186.97;;;22.82;100.00
19576;BME280;41589;51.196;7.074;2023-07-09T19:56:27;99196.38;;;22.96;100.00
19576;BME280;41589;51.196;7.074;2023-07-09T20:01:28;99202.06;;;23.01;100.00
19576;BME280;41589;51.196;7.074;2023-07-09T20:06:29;99206.00;;;22.98;100.00
19576;BME280;41589;51.196;7.074;2023-07-09T20:11:29;99211.47;;;22.83;100.00
19576;BME280;41589;51.196;7.074;2023-07-09T20:16:30;99217.50;;;22.80;100.00
19576;BME280;41589;51.196;7.074;2023-07-09T20:21:33;99222.53;;;22.60;100.00
19576;BME280;41589;51.196;7.074;2023-07-09T20:26:33;99212.78;;;22.50;100.00
19576;BME280;41589;51.196;7.074;2023-07-09T20:31:34;99225.09;;;22.45;100.00
19576;BME280;41589;51.196;7.074;2023-07-09T20:36:34;99226.25;;;22.36;100.00
19576;BME280;41589;51.196;7.074;2023-07-09T20:41:34;99229.97;;;22.31;100.00
19576;BME280;41589;51.196;7.074;2023-07-09T20:46:35;99239.69;;;22.23;100.00
19576;BME280;41589;51.196;7.074;2023-07-09T20:51:35;99228.53;;;22.19;100.00
19576;BME280;41589;51.196;7.074;2023-07-09T20:56:35;99231.16;;;22.17;100.00
19576;BME280;41589;51.196;7.074;2023-07-09T21:01:36;99228.69;;;22.27;100.00
19576;BME280;41589;51.196;7.074;2023-07-09T21:06:37;99240.78;;;22.19;100.00
19576;BME280;41589;51.196;7.074;2023-07-09T21:11:37;99250.44;;;22.16;100.00
19576;BME280;41589;51.196;7.074;2023-07-09T21:16:38;99247.59;;;22.16;100.00
19576;BME280;41589;51.196;7.074;2023-07-09T21:21:38;99248.44;;;22.11;100.00
19576;BME280;41589;51.196;7.074;2023-07-09T21:26:39;99244.56;;;22.09;100.00
19576;BME280;41589;51.196;7.074;2023-07-09T21:31:39;99259.19;;;22.05;100.00
19576;BME280;41589;51.196;7.074;2023-07-09T21:36:40;99261.22;;;22.10;100.00
19576;BME280;41589;51.196;7.074;2023-07-09T21:41:40;99257.03;;;22.11;100.00
19576;BME280;41589;51.196;7.074;2023-07-09T21:46:42;99277.88;;;22.12;100.00
19576;BME280;41589;51.196;7.074;2023-07-09T21:51:45;99285.25;;;22.07;100.00
19576;BME280;41589;51.196;7.074;2023-07-09T21:56:45;99277.47;;;22.02;100.00
19576;BME280;41589;51.196;7.074;2023-07-09T22:01:47;99283.19;;;22.02;100.00
19576;BME280;41589;51.196;7.074;2023-07-09T22:06:49;99277.91;;;21.87;100.00
19576;BME280;41589;51.196;7.074;2023-07-09T22:11:51;99274.78;;;21.85;100.00
19576;BME280;41589;51.196;7.074;2023-07-09T22:16:52;99284.34;;;21.94;100.00
19576;BME280;41589;51.196;7.074;2023-07-09T22:21:53;99282.47;;;21.96;100.00
19576;BME280;41589;51.196;7.074;2023-07-09T22:26:53;99287.97;;;21.94;100.00
19576;BME280;41589;51.196;7.074;2023-07-09T22:31:54;99292.28;;;21.82;100.00
19576;BME280;41589;51.196;7.074;2023-07-09T22:36:54;99286.00;;;21.83;100.00
19576;BME280;41589;51.196;7.074;2023-07-09T22:41:54;99285.00;;;21.81;100.00
19576;BME280;41589;51.196;7.074;2023-07-09T22:46:57;99281.94;;;21.73;100.00
19576;BME280;41589;51.196;7.074;2023-07-09T22:51:57;99296.94;;;21.60;100.00
19576;BME280;41589;51.196;7.074;2023-07-09T22:56:58;99303.53;;;21.44;100.00
19576;BME280;41589;51.196;7.074;2023-07-09T23:01:58;99309.28;;;21.44;100.00
19576;BME280;41589;51.196;7.074;2023-07-09T23:06:58;99304.63;;;21.41;100.00
19576;BME280;41589;51.196;7.074;2023-07-09T23:12:00;99317.84;;;21.44;100.00
19576;BME280;41589;51.196;7.074;2023-07-09T23:17:01;99321.00;;;21.46;100.00
19576;BME280;41589;51.196;7.074;2023-07-09T23:22:01;99316.56;;;21.45;100.00
19576;BME280;41589;51.196;7.074;2023-07-09T23:27:03;99315.53;;;21.43;100.00
19576;BME280;41589;51.196;7.074;2023-07-09T23:32:04;99300.31;;;21.29;100.00
19576;BME280;41589;51.196;7.074;2023-07-09T23:37:05;99304.13;;;21.07;100.00
19576;BME280;41589;51.196;7.074;2023-07-09T23:42:08;99302.66;;;20.95;100.00
19576;BME280;41589;51.196;7.074;2023-07-09T23:47:10;99298.19;;;20.99;100.00
19576;BME280;41589;51.196;7.074;2023-07-09T23:52:11;99304.41;;;21.03;100.00
19576;BME280;41589;51.196;7.074;2023-07-09T23:57:11;99299.16;;;21.08;100.00
